sensor_id;sensor_type;location;lat;lon;timestamp;temperature;humidity
22290;DHT22;11313;50.116;8.424;2024-02-21T00:00:35;26.80;42.30
22290;DHT22;11313;50.116;8.424;2024-02-21T00:03:00;26.80;42.30
22290;DHT22;11313;50.116;8.424;2024-02-21T00:05:27;26.80;42.30
22290;DHT22;11313;50.116;8.424;2024-02-21T00:07:53;26.80;42.30
22290;DHT22;11313;50.116;8.424;2024-02-21T00:10:18;26.80;42.30
22290;DHT22;11313;50.116;8.424;2024-02-21T00:12:44;26.80;42.30
22290;DHT22;11313;50.116;8.424;2024-02-21T00:15:09;26.80;42.30
22290;DHT22;11313;50.116;8.424;2024-02-21T00:17:35;26.80;42.30
22290;DHT22;11313;50.116;8.424;2024-02-21T00:20:00;26.80;42.30
22290;DHT22;11313;50.116;8.424;2024-02-21T00:22:26;26.80;42.30
22290;DHT22;11313;50.116;8.424;2024-02-21T00:24:54;26.80;42.20
22290;DHT22;11313;50.116;8.424;2024-02-21T00:27:20;26.90;42.20
22290;DHT22;11313;50.116;8.424;2024-02-21T00:29:45;26.80;42.10
22290;DHT22;11313;50.116;8.424;2024-02-21T00:32:11;26.80;42.10
22290;DHT22;11313;50.116;8.424;2024-02-21T00:34:36;26.90;42.20
22290;DHT22;11313;50.116;8.424;2024-02-21T00:37:02;26.90;42.10
22290;DHT22;11313;50.116;8.424;2024-02-21T00:39:27;26.90;42.10
22290;DHT22;11313;50.116;8.424;2024-02-21T00:41:53;26.90;42.00
22290;DHT22;11313;50.116;8.424;2024-02-21T00:44:18;26.90;42.00
22290;DHT22;11313;50.116;8.424;2024-02-21T00:46:44;26.90;42.00
22290;DHT22;11313;50.116;8.424;2024-02-21T00:49:09;26.90;42.60
22290;DHT22;11313;50.116;8.424;2024-02-21T00:51:35;26.90;41.90
22290;DHT22;11313;50.116;8.424;2024-02-21T00:54:00;27.00;41.90
22290;DHT22;11313;50.116;8.424;2024-02-21T00:56:26;26.90;41.90
22290;DHT22;11313;50.116;8.424;2024-02-21T00:58:52;26.90;41.90
22290;DHT22;11313;50.116;8.424;2024-02-21T01:01:24;27.00;41.90
22290;DHT22;11313;50.116;8.424;2024-02-21T01:03:50;26.90;41.80
22290;DHT22;11313;50.116;8.424;2024-02-21T01:06:16;27.00;41.90
22290;DHT22;11313;50.116;8.424;2024-02-21T01:08:42;27.00;41.90
22290;DHT22;11313;50.116;8.424;2024-02-21T01:11:07;27.00;41.90
22290;DHT22;11313;50.116;8.424;2024-02-21T01:13:33;27.00;41.90
22290;DHT22;11313;50.116;8.424;2024-02-21T01:15:58;27.00;41.80
22290;DHT22;11313;50.116;8.424;2024-02-21T01:18:24;27.00;41.80
22290;DHT22;11313;50.116;8.424;2024-02-21T01:20:49;27.00;41.80
22290;DHT22;11313;50.116;8.424;2024-02-21T01:23:14;27.00;41.80
22290;DHT22;11313;50.116;8.424;2024-02-21T01:25:40;27.00;41.70
22290;DHT22;11313;50.116;8.424;2024-02-21T01:28:05;27.00;41.80
22290;DHT22;11313;50.116;8.424;2024-02-21T01:30:31;27.00;41.80
22290;DHT22;11313;50.116;8.424;2024-02-21T01:32:56;27.00;41.80
22290;DHT22;11313;50.116;8.424;2024-02-21T01:35:22;26.90;41.80
22290;DHT22;11313;50.116;8.424;2024-02-21T01:37:47;27.00;41.90
22290;DHT22;11313;50.116;8.424;2024-02-21T01:40:15;26.90;41.80
22290;DHT22;11313;50.116;8.424;2024-02-21T01:42:40;26.90;41.90
22290;DHT22;11313;50.116;8.424;2024-02-21T01:45:06;26.90;41.90
22290;DHT22;11313;50.116;8.424;2024-02-21T01:47:32;26.90;41.90
22290;DHT22;11313;50.116;8.424;2024-02-21T01:49:57;26.90;41.90
22290;DHT22;11313;50.116;8.424;2024-02-21T01:52:23;26.90;41.90
22290;DHT22;11313;50.116;8.424;2024-02-21T01:54:48;26.90;42.00
22290;DHT22;11313;50.116;8.424;2024-02-21T01:57:14;26.90;42.00
22290;DHT22;11313;50.116;8.424;2024-02-21T01:59:40;26.90;42.00
22290;DHT22;11313;50.116;8.424;2024-02-21T02:02:06;26.90;42.00
22290;DHT22;11313;50.116;8.424;2024-02-21T02:04:31;26.90;42.00
22290;DHT22;11313;50.116;8.424;2024-02-21T02:07:00;26.80;42.00
22290;DHT22;11313;50.116;8.424;2024-02-21T02:09:28;26.90;42.10
22290;DHT22;11313;50.116;8.424;2024-02-21T02:11:53;26.80;42.00
22290;DHT22;11313;50.116;8.424;2024-02-21T02:14:19;26.80;42.10
22290;DHT22;11313;50.116;8.424;2024-02-21T02:16:47;26.80;42.10
22290;DHT22;11313;50.116;8.424;2024-02-21T02:19:13;26.80;42.10
22290;DHT22;11313;50.116;8.424;2024-02-21T02:21:40;26.80;42.00
22290;DHT22;11313;50.116;8.424;2024-02-21T02:24:06;26.80;42.10
22290;DHT22;11313;50.116;8.424;2024-02-21T02:26:32;26.80;42.00
22290;DHT22;11313;50.116;8.424;2024-02-21T02:28:58;26.80;42.00
22290;DHT22;11313;50.116;8.424;2024-02-21T02:31:23;26.80;42.00
22290;DHT22;11313;50.116;8.424;2024-02-21T02:33:48;26.80;42.00
22290;DHT22;11313;50.116;8.424;2024-02-21T02:36:14;26.80;42.00
22290;DHT22;11313;50.116;8.424;2024-02-21T02:38:40;26.80;41.90
22290;DHT22;11313;50.116;8.424;2024-02-21T02:41:05;26.90;42.00
22290;DHT22;11313;50.116;8.424;2024-02-21T02:43:30;26.90;41.90
22290;DHT22;11313;50.116;8.424;2024-02-21T02:45:56;26.90;41.90
22290;DHT22;11313;50.116;8.424;2024-02-21T02:48:22;26.90;41.90
22290;DHT22;11313;50.116;8.424;2024-02-21T02:50:48;26.90;41.90
22290;DHT22;11313;50.116;8.424;2024-02-21T02:53:15;26.90;41.90
22290;DHT22;11313;50.116;8.424;2024-02-21T02:55:40;26.90;41.80
22290;DHT22;11313;50.116;8.424;2024-02-21T02:58:05;26.90;41.80
22290;DHT22;11313;50.116;8.424;2024-02-21T03:00:31;26.90;41.70
22290;DHT22;11313;50.116;8.424;2024-02-21T03:03:01;27.00;41.70
22290;DHT22;11313;50.116;8.424;2024-02-21T03:05:29;27.10;41.80
22290;DHT22;11313;50.116;8.424;2024-02-21T03:07:54;27.00;41.70
22290;DHT22;11313;50.116;8.424;2024-02-21T03:10:20;27.00;41.60
22290;DHT22;11313;50.116;8.424;2024-02-21T03:12:46;27.00;41.60
22290;DHT22;11313;50.116;8.424;2024-02-21T03:15:13;27.00;41.60
22290;DHT22;11313;50.116;8.424;2024-02-21T03:17:39;27.00;41.60
22290;DHT22;11313;50.116;8.424;2024-02-21T03:20:05;27.00;41.60
22290;DHT22;11313;50.116;8.424;2024-02-21T03:22:33;27.00;41.70
22290;DHT22;11313;50.116;8.424;2024-02-21T03:24:59;27.00;41.60
22290;DHT22;11313;50.116;8.424;2024-02-21T03:27:24;27.00;41.60
22290;DHT22;11313;50.116;8.424;2024-02-21T03:29:50;27.00;41.60
22290;DHT22;11313;50.116;8.424;2024-02-21T03:32:15;27.00;41.60
22290;DHT22;11313;50.116;8.424;2024-02-21T03:34:41;27.00;41.70
22290;DHT22;11313;50.116;8.424;2024-02-21T03:37:06;27.00;41.60
22290;DHT22;11313;50.116;8.424;2024-02-21T03:39:32;27.00;41.60
22290;DHT22;11313;50.116;8.424;2024-02-21T03:41:58;27.00;41.70
22290;DHT22;11313;50.116;8.424;2024-02-21T03:44:26;27.00;41.70
22290;DHT22;11313;50.116;8.424;2024-02-21T03:46:52;26.90;41.70
22290;DHT22;11313;50.116;8.424;2024-02-21T03:49:17;27.00;41.60
22290;DHT22;11313;50.116;8.424;2024-02-21T03:51:43;27.00;41.70
22290;DHT22;11313;50.116;8.424;2024-02-21T03:54:09;26.90;41.70
22290;DHT22;11313;50.116;8.424;2024-02-21T03:56:37;26.90;41.70
22290;DHT22;11313;50.116;8.424;2024-02-21T03:59:04;27.00;41.70
22290;DHT22;11313;50.116;8.424;2024-02-21T04:01:30;26.90;41.70
22290;DHT22;11313;50.116;8.424;2024-02-21T04:03:55;26.90;41.80
22290;DHT22;11313;50.116;8.424;2024-02-21T04:06:21;26.90;41.80
22290;DHT22;11313;50.116;8.424;2024-02-21T04:08:46;26.90;41.90
22290;DHT22;11313;50.116;8.424;2024-02-21T04:11:12;26.90;41.90
22290;DHT22;11313;50.116;8.424;2024-02-21T04:13:37;26.90;41.90
22290;DHT22;11313;50.116;8.424;2024-02-21T04:16:03;26.80;41.90
22290;DHT22;11313;50.116;8.424;2024-02-21T04:18:29;26.80;41.90
22290;DHT22;11313;50.116;8.424;2024-02-21T04:20:55;26.80;41.90
22290;DHT22;11313;50.116;8.424;2024-02-21T04:23:20;26.80;41.90
22290;DHT22;11313;50.116;8.424;2024-02-21T04:25:46;26.80;41.90
22290;DHT22;11313;50.116;8.424;2024-02-21T04:28:11;26.80;42.00
22290;DHT22;11313;50.116;8.424;2024-02-21T04:30:37;26.80;42.00
22290;DHT22;11313;50.116;8.424;2024-02-21T04:33:02;26.80;42.00
22290;DHT22;11313;50.116;8.424;2024-02-21T04:35:28;26.70;42.00
22290;DHT22;11313;50.116;8.424;2024-02-21T04:37:53;26.80;42.10
22290;DHT22;11313;50.116;8.424;2024-02-21T04:40:19;26.70;42.00
22290;DHT22;11313;50.116;8.424;2024-02-21T04:42:45;26.70;42.00
22290;DHT22;11313;50.116;8.424;2024-02-21T04:45:10;26.70;42.00
22290;DHT22;11313;50.116;8.424;2024-02-21T04:47:36;26.70;42.00
22290;DHT22;11313;50.116;8.424;2024-02-21T04:50:01;26.70;42.10
22290;DHT22;11313;50.116;8.424;2024-02-21T04:52:27;26.70;42.10
22290;DHT22;11313;50.116;8.424;2024-02-21T04:54:52;26.70;42.10
22290;DHT22;11313;50.116;8.424;2024-02-21T04:57:18;26.70;42.10
22290;DHT22;11313;50.116;8.424;2024-02-21T04:59:46;26.70;42.10
22290;DHT22;11313;50.116;8.424;2024-02-21T05:02:13;26.70;42.10
22290;DHT22;11313;50.116;8.424;2024-02-21T05:04:39;26.70;42.10
22290;DHT22;11313;50.116;8.424;2024-02-21T05:07:06;26.70;42.10
22290;DHT22;11313;50.116;8.424;2024-02-21T05:09:32;26.70;42.10
22290;DHT22;11313;50.116;8.424;2024-02-21T05:11:57;26.70;42.10
22290;DHT22;11313;50.116;8.424;2024-02-21T05:14:26;26.70;42.10
22290;DHT22;11313;50.116;8.424;2024-02-21T05:16:54;26.60;42.10
22290;DHT22;11313;50.116;8.424;2024-02-21T05:19:20;26.70;42.10
22290;DHT22;11313;50.116;8.424;2024-02-21T05:21:45;26.70;42.20
22290;DHT22;11313;50.116;8.424;2024-02-21T05:24:11;26.70;42.10
22290;DHT22;11313;50.116;8.424;2024-02-21T05:26:37;26.70;42.20
22290;DHT22;11313;50.116;8.424;2024-02-21T05:29:02;26.60;42.00
22290;DHT22;11313;50.116;8.424;2024-02-21T05:34:18;26.60;42.10
22290;DHT22;11313;50.116;8.424;2024-02-21T05:36:44;26.60;42.10
22290;DHT22;11313;50.116;8.424;2024-02-21T05:39:09;26.60;42.10
22290;DHT22;11313;50.116;8.424;2024-02-21T05:41:35;26.60;42.10
22290;DHT22;11313;50.116;8.424;2024-02-21T05:44:01;26.60;42.10
22290;DHT22;11313;50.116;8.424;2024-02-21T05:46:26;26.60;42.10
22290;DHT22;11313;50.116;8.424;2024-02-21T05:48:52;26.60;42.20
22290;DHT22;11313;50.116;8.424;2024-02-21T05:51:17;26.60;42.10
22290;DHT22;11313;50.116;8.424;2024-02-21T05:53:43;26.60;42.20
22290;DHT22;11313;50.116;8.424;2024-02-21T05:56:12;26.60;42.10
22290;DHT22;11313;50.116;8.424;2024-02-21T05:58:38;26.60;42.20
22290;DHT22;11313;50.116;8.424;2024-02-21T06:01:03;26.60;42.10
22290;DHT22;11313;50.116;8.424;2024-02-21T06:03:30;26.60;42.10
22290;DHT22;11313;50.116;8.424;2024-02-21T06:05:55;26.50;42.00
22290;DHT22;11313;50.116;8.424;2024-02-21T06:08:21;26.60;42.10
22290;DHT22;11313;50.116;8.424;2024-02-21T06:10:47;26.60;42.00
22290;DHT22;11313;50.116;8.424;2024-02-21T06:13:14;26.60;42.00
22290;DHT22;11313;50.116;8.424;2024-02-21T06:15:39;26.60;42.00
22290;DHT22;11313;50.116;8.424;2024-02-21T06:18:05;26.60;41.90
22290;DHT22;11313;50.116;8.424;2024-02-21T06:20:30;26.70;42.00
22290;DHT22;11313;50.116;8.424;2024-02-21T06:22:56;26.70;42.00
22290;DHT22;11313;50.116;8.424;2024-02-21T06:25:22;26.80;42.00
22290;DHT22;11313;50.116;8.424;2024-02-21T06:27:47;26.70;41.90
22290;DHT22;11313;50.116;8.424;2024-02-21T06:30:13;26.70;41.90
22290;DHT22;11313;50.116;8.424;2024-02-21T06:32:38;26.70;41.90
22290;DHT22;11313;50.116;8.424;2024-02-21T06:35:05;26.80;41.90
22290;DHT22;11313;50.116;8.424;2024-02-21T06:37:30;26.80;41.80
22290;DHT22;11313;50.116;8.424;2024-02-21T06:39:57;26.80;41.80
22290;DHT22;11313;50.116;8.424;2024-02-21T06:42:25;26.80;41.70
22290;DHT22;11313;50.116;8.424;2024-02-21T06:44:51;26.90;41.80
22290;DHT22;11313;50.116;8.424;2024-02-21T06:47:17;26.90;41.70
22290;DHT22;11313;50.116;8.424;2024-02-21T06:49:42;26.90;41.70
22290;DHT22;11313;50.116;8.424;2024-02-21T06:52:08;26.90;41.60
22290;DHT22;11313;50.116;8.424;2024-02-21T06:54:33;26.90;41.60
22290;DHT22;11313;50.116;8.424;2024-02-21T06:56:59;26.90;41.60
22290;DHT22;11313;50.116;8.424;2024-02-21T06:59:24;26.90;41.60
22290;DHT22;11313;50.116;8.424;2024-02-21T07:01:54;26.90;42.30
22290;DHT22;11313;50.116;8.424;2024-02-21T07:04:20;27.00;43.70
22290;DHT22;11313;50.116;8.424;2024-02-21T07:06:46;26.90;42.40
22290;DHT22;11313;50.116;8.424;2024-02-21T07:09:11;27.00;43.00
22290;DHT22;11313;50.116;8.424;2024-02-21T07:11:37;27.00;42.20
22290;DHT22;11313;50.116;8.424;2024-02-21T07:14:02;26.90;42.80
22290;DHT22;11313;50.116;8.424;2024-02-21T07:16:28;26.90;42.20
22290;DHT22;11313;50.116;8.424;2024-02-21T07:18:54;26.90;42.20
22290;DHT22;11313;50.116;8.424;2024-02-21T07:21:20;27.00;42.20
22290;DHT22;11313;50.116;8.424;2024-02-21T07:23:45;26.90;42.10
22290;DHT22;11313;50.116;8.424;2024-02-21T07:26:11;26.90;42.10
22290;DHT22;11313;50.116;8.424;2024-02-21T07:28:36;26.90;42.10
22290;DHT22;11313;50.116;8.424;2024-02-21T07:31:02;26.90;42.10
22290;DHT22;11313;50.116;8.424;2024-02-21T07:33:28;26.90;42.20
22290;DHT22;11313;50.116;8.424;2024-02-21T07:35:53;26.80;42.10
22290;DHT22;11313;50.116;8.424;2024-02-21T07:38:19;26.90;42.20
22290;DHT22;11313;50.116;8.424;2024-02-21T07:40:45;26.80;43.10
22290;DHT22;11313;50.116;8.424;2024-02-21T07:43:10;26.80;43.30
22290;DHT22;11313;50.116;8.424;2024-02-21T07:45:36;26.80;43.00
22290;DHT22;11313;50.116;8.424;2024-02-21T07:48:02;26.80;43.00
22290;DHT22;11313;50.116;8.424;2024-02-21T07:50:27;26.70;43.00
22290;DHT22;11313;50.116;8.424;2024-02-21T07:52:53;26.80;43.00
22290;DHT22;11313;50.116;8.424;2024-02-21T07:55:18;26.80;43.00
22290;DHT22;11313;50.116;8.424;2024-02-21T07:57:44;26.70;43.00
22290;DHT22;11313;50.116;8.424;2024-02-21T08:00:09;26.70;43.00
22290;DHT22;11313;50.116;8.424;2024-02-21T08:02:40;26.70;43.00
22290;DHT22;11313;50.116;8.424;2024-02-21T08:05:08;26.70;42.90
22290;DHT22;11313;50.116;8.424;2024-02-21T08:07:33;26.70;42.90
22290;DHT22;11313;50.116;8.424;2024-02-21T08:09:59;26.70;42.90
22290;DHT22;11313;50.116;8.424;2024-02-21T08:12:24;26.70;42.90
22290;DHT22;11313;50.116;8.424;2024-02-21T08:14:49;26.70;43.00
22290;DHT22;11313;50.116;8.424;2024-02-21T08:17:15;26.70;42.80
22290;DHT22;11313;50.116;8.424;2024-02-21T08:19:40;26.70;42.80
22290;DHT22;11313;50.116;8.424;2024-02-21T08:22:06;26.70;42.80
22290;DHT22;11313;50.116;8.424;2024-02-21T08:24:32;26.70;42.80
22290;DHT22;11313;50.116;8.424;2024-02-21T08:26:57;26.70;42.80
22290;DHT22;11313;50.116;8.424;2024-02-21T08:29:23;26.70;42.70
22290;DHT22;11313;50.116;8.424;2024-02-21T08:31:48;26.70;42.70
22290;DHT22;11313;50.116;8.424;2024-02-21T08:34:14;26.70;42.70
22290;DHT22;11313;50.116;8.424;2024-02-21T08:36:40;26.70;42.70
22290;DHT22;11313;50.116;8.424;2024-02-21T08:39:05;26.70;42.70
22290;DHT22;11313;50.116;8.424;2024-02-21T08:41:32;26.70;42.70
22290;DHT22;11313;50.116;8.424;2024-02-21T08:43:58;26.70;42.70
22290;DHT22;11313;50.116;8.424;2024-02-21T08:46:23;26.70;42.70
22290;DHT22;11313;50.116;8.424;2024-02-21T08:48:50;26.70;42.60
22290;DHT22;11313;50.116;8.424;2024-02-21T08:51:17;26.70;42.60
22290;DHT22;11313;50.116;8.424;2024-02-21T08:53:43;26.70;42.50
22290;DHT22;11313;50.116;8.424;2024-02-21T08:56:09;26.70;42.60
22290;DHT22;11313;50.116;8.424;2024-02-21T08:58:38;26.70;42.50
22290;DHT22;11313;50.116;8.424;2024-02-21T09:01:05;26.70;42.50
22290;DHT22;11313;50.116;8.424;2024-02-21T09:03:32;26.70;42.50
22290;DHT22;11313;50.116;8.424;2024-02-21T09:05:57;26.80;42.50
22290;DHT22;11313;50.116;8.424;2024-02-21T09:08:23;26.70;42.40
22290;DHT22;11313;50.116;8.424;2024-02-21T09:10:49;26.70;42.40
22290;DHT22;11313;50.116;8.424;2024-02-21T09:13:15;26.70;42.40
22290;DHT22;11313;50.116;8.424;2024-02-21T09:15:40;26.80;42.50
22290;DHT22;11313;50.116;8.424;2024-02-21T09:18:06;26.70;42.40
22290;DHT22;11313;50.116;8.424;2024-02-21T09:20:31;26.80;42.40
22290;DHT22;11313;50.116;8.424;2024-02-21T09:22:57;26.80;42.30
22290;DHT22;11313;50.116;8.424;2024-02-21T09:25:22;26.80;42.90
22290;DHT22;11313;50.116;8.424;2024-02-21T09:27:48;26.80;42.20
22290;DHT22;11313;50.116;8.424;2024-02-21T09:30:13;26.90;42.30
22290;DHT22;11313;50.116;8.424;2024-02-21T09:32:39;26.80;42.20
22290;DHT22;11313;50.116;8.424;2024-02-21T09:35:05;26.80;42.20
22290;DHT22;11313;50.116;8.424;2024-02-21T09:37:31;26.80;42.20
22290;DHT22;11313;50.116;8.424;2024-02-21T09:39:57;26.80;42.20
22290;DHT22;11313;50.116;8.424;2024-02-21T09:42:42;26.90;42.20
22290;DHT22;11313;50.116;8.424;2024-02-21T09:45:18;26.80;42.10
22290;DHT22;11313;50.116;8.424;2024-02-21T09:50:36;26.90;42.00
22290;DHT22;11313;50.116;8.424;2024-02-21T09:53:04;26.90;42.00
22290;DHT22;11313;50.116;8.424;2024-02-21T09:55:33;26.90;42.00
22290;DHT22;11313;50.116;8.424;2024-02-21T09:58:01;26.90;42.00
22290;DHT22;11313;50.116;8.424;2024-02-21T10:00:27;26.90;42.10
22290;DHT22;11313;50.116;8.424;2024-02-21T10:02:55;26.90;42.00
22290;DHT22;11313;50.116;8.424;2024-02-21T10:05:21;26.90;42.00
22290;DHT22;11313;50.116;8.424;2024-02-21T10:07:48;26.90;42.00
22290;DHT22;11313;50.116;8.424;2024-02-21T10:10:14;26.90;42.10
22290;DHT22;11313;50.116;8.424;2024-02-21T10:12:51;26.80;42.10
22290;DHT22;11313;50.116;8.424;2024-02-21T10:15:24;26.80;42.10
22290;DHT22;11313;50.116;8.424;2024-02-21T10:18:00;26.80;42.10
22290;DHT22;11313;50.116;8.424;2024-02-21T10:20:26;26.80;42.10
22290;DHT22;11313;50.116;8.424;2024-02-21T10:23:04;26.80;42.10
22290;DHT22;11313;50.116;8.424;2024-02-21T10:25:36;26.80;42.20
22290;DHT22;11313;50.116;8.424;2024-02-21T10:28:06;26.80;42.20
22290;DHT22;11313;50.116;8.424;2024-02-21T10:30:32;26.80;42.20
22290;DHT22;11313;50.116;8.424;2024-02-21T10:32:58;26.80;42.30
22290;DHT22;11313;50.116;8.424;2024-02-21T10:35:31;26.70;42.30
22290;DHT22;11313;50.116;8.424;2024-02-21T10:37:57;26.70;43.00
22290;DHT22;11313;50.116;8.424;2024-02-21T10:40:27;26.70;42.30
22290;DHT22;11313;50.116;8.424;2024-02-21T10:43:00;26.70;42.30
22290;DHT22;11313;50.116;8.424;2024-02-21T10:45:36;26.60;42.30
22290;DHT22;11313;50.116;8.424;2024-02-21T10:48:14;26.60;42.30
22290;DHT22;11313;50.116;8.424;2024-02-21T10:51:02;26.60;42.30
22290;DHT22;11313;50.116;8.424;2024-02-21T10:56:30;26.60;42.40
22290;DHT22;11313;50.116;8.424;2024-02-21T10:58:58;26.60;42.50
22290;DHT22;11313;50.116;8.424;2024-02-21T11:01:23;26.60;42.50
22290;DHT22;11313;50.116;8.424;2024-02-21T11:03:53;26.60;42.40
22290;DHT22;11313;50.116;8.424;2024-02-21T11:06:20;26.60;42.20
22290;DHT22;11313;50.116;8.424;2024-02-21T11:08:47;26.50;42.10
22290;DHT22;11313;50.116;8.424;2024-02-21T11:11:13;26.50;42.10
22290;DHT22;11313;50.116;8.424;2024-02-21T11:13:47;26.60;42.10
22290;DHT22;11313;50.116;8.424;2024-02-21T11:16:21;26.50;41.90
22290;DHT22;11313;50.116;8.424;2024-02-21T11:18:47;26.60;41.70
22290;DHT22;11313;50.116;8.424;2024-02-21T11:21:13;26.60;41.70
22290;DHT22;11313;50.116;8.424;2024-02-21T11:23:38;26.50;41.60
22290;DHT22;11313;50.116;8.424;2024-02-21T11:26:08;26.50;41.50
22290;DHT22;11313;50.116;8.424;2024-02-21T11:28:34;26.60;41.50
22290;DHT22;11313;50.116;8.424;2024-02-21T11:31:10;26.60;41.30
22290;DHT22;11313;50.116;8.424;2024-02-21T11:33:39;26.60;41.30
22290;DHT22;11313;50.116;8.424;2024-02-21T11:36:05;26.60;41.20
22290;DHT22;11313;50.116;8.424;2024-02-21T11:38:30;26.60;41.00
22290;DHT22;11313;50.116;8.424;2024-02-21T11:40:56;26.60;40.90
22290;DHT22;11313;50.116;8.424;2024-02-21T11:43:21;26.60;40.90
22290;DHT22;11313;50.116;8.424;2024-02-21T11:45:47;26.60;40.80
22290;DHT22;11313;50.116;8.424;2024-02-21T11:48:12;26.60;40.70
22290;DHT22;11313;50.116;8.424;2024-02-21T11:50:39;26.60;40.70
22290;DHT22;11313;50.116;8.424;2024-02-21T11:53:05;26.60;40.60
22290;DHT22;11313;50.116;8.424;2024-02-21T11:55:31;26.60;40.70
22290;DHT22;11313;50.116;8.424;2024-02-21T11:57:56;26.60;40.80
22290;DHT22;11313;50.116;8.424;2024-02-21T12:00:22;26.60;40.80
22290;DHT22;11313;50.116;8.424;2024-02-21T12:02:50;26.70;41.00
22290;DHT22;11313;50.116;8.424;2024-02-21T12:05:16;26.70;40.80
22290;DHT22;11313;50.116;8.424;2024-02-21T12:07:43;26.70;40.80
22290;DHT22;11313;50.116;8.424;2024-02-21T12:10:13;26.70;40.90
22290;DHT22;11313;50.116;8.424;2024-02-21T12:12:39;26.70;40.90
22290;DHT22;11313;50.116;8.424;2024-02-21T12:15:05;26.70;40.90
22290;DHT22;11313;50.116;8.424;2024-02-21T12:17:39;26.70;40.90
22290;DHT22;11313;50.116;8.424;2024-02-21T12:20:05;26.70;40.90
22290;DHT22;11313;50.116;8.424;2024-02-21T12:22:35;26.70;40.90
22290;DHT22;11313;50.116;8.424;2024-02-21T12:25:03;26.70;41.00
22290;DHT22;11313;50.116;8.424;2024-02-21T12:27:29;26.70;40.90
22290;DHT22;11313;50.116;8.424;2024-02-21T12:29:55;26.70;41.00
22290;DHT22;11313;50.116;8.424;2024-02-21T12:32:20;26.70;41.10
22290;DHT22;11313;50.116;8.424;2024-02-21T12:34:46;26.70;41.00
22290;DHT22;11313;50.116;8.424;2024-02-21T12:37:11;26.70;41.10
22290;DHT22;11313;50.116;8.424;2024-02-21T12:39:41;26.60;41.10
22290;DHT22;11313;50.116;8.424;2024-02-21T12:42:07;26.60;41.10
22290;DHT22;11313;50.116;8.424;2024-02-21T12:44:32;26.60;41.20
22290;DHT22;11313;50.116;8.424;2024-02-21T12:46:59;26.60;41.10
22290;DHT22;11313;50.116;8.424;2024-02-21T12:49:24;26.60;41.10
22290;DHT22;11313;50.116;8.424;2024-02-21T12:51:50;26.60;41.00
22290;DHT22;11313;50.116;8.424;2024-02-21T12:54:15;26.60;41.10
22290;DHT22;11313;50.116;8.424;2024-02-21T12:56:41;26.50;40.90
22290;DHT22;11313;50.116;8.424;2024-02-21T12:59:06;26.50;41.00
22290;DHT22;11313;50.116;8.424;2024-02-21T13:01:36;26.50;41.00
22290;DHT22;11313;50.116;8.424;2024-02-21T13:04:02;26.50;40.90
22290;DHT22;11313;50.116;8.424;2024-02-21T13:06:28;26.50;40.90
22290;DHT22;11313;50.116;8.424;2024-02-21T13:08:54;26.50;40.80
22290;DHT22;11313;50.116;8.424;2024-02-21T13:11:19;26.50;40.90
22290;DHT22;11313;50.116;8.424;2024-02-21T13:13:45;26.50;41.00
22290;DHT22;11313;50.116;8.424;2024-02-21T13:16:10;26.50;41.10
22290;DHT22;11313;50.116;8.424;2024-02-21T13:18:36;26.50;41.10
22290;DHT22;11313;50.116;8.424;2024-02-21T13:21:04;26.50;41.10
22290;DHT22;11313;50.116;8.424;2024-02-21T13:23:29;26.50;41.10
22290;DHT22;11313;50.116;8.424;2024-02-21T13:25:55;26.50;41.20
22290;DHT22;11313;50.116;8.424;2024-02-21T13:28:20;26.50;41.00
22290;DHT22;11313;50.116;8.424;2024-02-21T13:30:46;26.50;41.00
22290;DHT22;11313;50.116;8.424;2024-02-21T13:33:13;26.50;41.00
22290;DHT22;11313;50.116;8.424;2024-02-21T13:35:39;26.60;41.10
22290;DHT22;11313;50.116;8.424;2024-02-21T13:38:04;26.60;41.10
22290;DHT22;11313;50.116;8.424;2024-02-21T13:40:30;26.60;41.10
22290;DHT22;11313;50.116;8.424;2024-02-21T13:42:55;26.60;41.10
22290;DHT22;11313;50.116;8.424;2024-02-21T13:45:21;26.60;41.00
22290;DHT22;11313;50.116;8.424;2024-02-21T13:47:47;26.70;41.00
22290;DHT22;11313;50.116;8.424;2024-02-21T13:50:13;26.60;40.90
22290;DHT22;11313;50.116;8.424;2024-02-21T13:52:42;26.70;41.60
22290;DHT22;11313;50.116;8.424;2024-02-21T13:55:08;26.70;40.90
22290;DHT22;11313;50.116;8.424;2024-02-21T13:57:38;26.70;40.90
22290;DHT22;11313;50.116;8.424;2024-02-21T14:00:04;26.70;40.90
22290;DHT22;11313;50.116;8.424;2024-02-21T14:02:30;26.70;40.90
22290;DHT22;11313;50.116;8.424;2024-02-21T14:04:56;26.70;40.90
22290;DHT22;11313;50.116;8.424;2024-02-21T14:07:21;26.70;40.80
22290;DHT22;11313;50.116;8.424;2024-02-21T14:09:47;26.70;40.80
22290;DHT22;11313;50.116;8.424;2024-02-21T14:12:13;26.80;40.90
22290;DHT22;11313;50.116;8.424;2024-02-21T14:14:38;26.70;40.90
22290;DHT22;11313;50.116;8.424;2024-02-21T14:17:04;26.80;41.00
22290;DHT22;11313;50.116;8.424;2024-02-21T14:19:30;26.80;41.00
22290;DHT22;11313;50.116;8.424;2024-02-21T14:21:56;26.70;41.00
22290;DHT22;11313;50.116;8.424;2024-02-21T14:24:22;26.70;41.00
22290;DHT22;11313;50.116;8.424;2024-02-21T14:26:48;26.70;41.00
22290;DHT22;11313;50.116;8.424;2024-02-21T14:29:14;26.70;41.10
22290;DHT22;11313;50.116;8.424;2024-02-21T14:31:39;26.70;41.10
22290;DHT22;11313;50.116;8.424;2024-02-21T14:34:05;26.70;41.10
22290;DHT22;11313;50.116;8.424;2024-02-21T14:36:33;26.70;41.10
22290;DHT22;11313;50.116;8.424;2024-02-21T14:38:58;26.70;41.20
22290;DHT22;11313;50.116;8.424;2024-02-21T14:41:24;26.60;41.20
22290;DHT22;11313;50.116;8.424;2024-02-21T14:43:50;26.70;41.20
22290;DHT22;11313;50.116;8.424;2024-02-21T14:46:15;26.60;41.10
22290;DHT22;11313;50.116;8.424;2024-02-21T14:48:41;26.70;41.20
22290;DHT22;11313;50.116;8.424;2024-02-21T14:51:06;26.60;41.20
22290;DHT22;11313;50.116;8.424;2024-02-21T14:53:32;26.60;41.20
22290;DHT22;11313;50.116;8.424;2024-02-21T14:55:57;26.60;41.20
22290;DHT22;11313;50.116;8.424;2024-02-21T14:58:23;26.60;41.20
22290;DHT22;11313;50.116;8.424;2024-02-21T15:00:49;26.60;41.30
22290;DHT22;11313;50.116;8.424;2024-02-21T15:03:16;26.60;41.30
22290;DHT22;11313;50.116;8.424;2024-02-21T15:05:45;26.60;41.30
22290;DHT22;11313;50.116;8.424;2024-02-21T15:08:11;26.60;41.30
22290;DHT22;11313;50.116;8.424;2024-02-21T15:10:37;26.60;41.40
22290;DHT22;11313;50.116;8.424;2024-02-21T15:13:03;26.50;41.40
22290;DHT22;11313;50.116;8.424;2024-02-21T15:15:29;26.60;41.50
22290;DHT22;11313;50.116;8.424;2024-02-21T15:17:54;26.50;41.50
22290;DHT22;11313;50.116;8.424;2024-02-21T15:20:20;26.50;41.50
22290;DHT22;11313;50.116;8.424;2024-02-21T15:22:46;26.50;41.50
22290;DHT22;11313;50.116;8.424;2024-02-21T15:25:11;26.50;41.60
22290;DHT22;11313;50.116;8.424;2024-02-21T15:27:42;26.40;41.50
22290;DHT22;11313;50.116;8.424;2024-02-21T15:30:09;26.40;41.50
22290;DHT22;11313;50.116;8.424;2024-02-21T15:32:34;26.40;41.50